Time;durP1;ratioP1;P1;durP2;ratioP2;P2;SDS_P1;SDS_P2;PMS_P1;PMS_P2;Temp;Humidity;BMP_temperature;BMP_pressure;BME280_temperature;BME280_humidity;BME280_pressure;Samples;Min_cycle;Max_cycle;Signal;HPM_P1;HPM_P2
2022/05/24 00:01:50;;;;;;;6.17;3.30;;;;;;;10.20;70.65;99908.90;1311569;94;21383;-91
2022/05/24 00:04:16;;;;;;;6.73;3.57;;;;;;;10.17;69.93;99911.86;1326255;93;22226;-90
2022/05/24 00:06:42;;;;;;;5.73;3.00;;;;;;;10.13;69.85;99913.17;1358163;92;21567;-91
2022/05/24 00:09:09;;;;;;;3.93;3.07;;;;;;;10.08;69.94;99911.48;1339471;92;21521;-90
2022/05/24 00:11:35;;;;;;;5.53;2.90;;;;;;;10.03;70.59;99905.34;1343047;92;22515;-91
2022/05/24 00:14:01;;;;;;;5.53;3.23;;;;;;;9.97;71.71;99904.64;1338732;92;21495;-92
2022/05/24 00:16:28;;;;;;;3.50;3.00;;;;;;;9.94;70.69;99903.14;1363601;91;21524;-91
2022/05/24 00:18:54;;;;;;;5.90;2.90;;;;;;;9.93;72.66;99903.31;1339150;92;22389;-91
2022/05/24 00:21:20;;;;;;;3.83;2.80;;;;;;;9.96;72.63;99895.56;1365634;90;21563;-93
2022/05/24 00:23:46;;;;;;;9.60;4.47;;;;;;;9.93;73.17;99890.92;1338389;92;22433;-90
2022/05/24 00:26:27;;;;;;;4.13;3.03;;;;;;;9.90;72.88;99894.37;1310968;95;21424;-91
2022/05/24 00:28:53;;;;;;;3.55;3.25;;;;;;;9.86;72.50;99900.44;1365130;90;21509;-90
2022/05/24 00:31:19;;;;;;;6.30;3.70;;;;;;;9.77;72.45;99904.02;1351150;91;21548;-90
2022/05/24 00:33:45;;;;;;;4.63;3.20;;;;;;;9.71;72.21;99889.61;1340101;91;22401;-90
2022/05/24 00:36:12;;;;;;;3.83;2.83;;;;;;;9.67;72.99;99902.81;1325250;93;21364;-89
2022/05/24 00:38:39;;;;;;;4.80;3.00;;;;;;;9.63;73.58;99904.58;1339792;92;21460;-89
2022/05/24 00:41:25;;;;;;;6.93;3.37;;;;;;;9.59;73.57;99902.75;1343339;90;21371;-89
2022/05/24 00:44:20;;;;;;;4.47;2.87;;;;;;;9.55;73.63;99899.23;1352232;91;21519;-90
2022/05/24 00:47:24;;;;;;;3.80;3.23;;;;;;;9.49;73.54;99893.61;1347959;91;21651;-89
2022/05/24 00:49:56;;;;;;;4.20;3.20;;;;;;;9.47;73.79;99890.28;1344713;92;21333;-90
2022/05/24 00:52:31;;;;;;;16.13;6.20;;;;;;;9.41;74.24;99886.94;1357273;90;21435;-91
2022/05/24 00:54:59;;;;;;;4.40;3.27;;;;;;;9.40;72.95;99886.58;1355494;90;21371;-94
2022/05/24 00:57:37;;;;;;;3.93;3.10;;;;;;;9.39;74.77;99888.89;1358990;90;21341;-93
2022/05/24 01:00:10;;;;;;;2.97;2.67;;;;;;;9.39;74.29;99888.89;1370698;90;22413;-90
2022/05/24 01:02:38;;;;;;;4.07;3.27;;;;;;;9.38;74.53;99872.72;1331295;93;21490;-88
2022/05/24 01:05:08;;;;;;;4.23;3.33;;;;;;;9.37;73.89;99873.68;1364836;90;21422;-88
2022/05/24 01:07:34;;;;;;;4.60;2.98;;;;;;;9.29;73.78;99867.01;1363101;90;21376;-88
2022/05/24 01:10:09;;;;;;;4.80;3.63;;;;;;;9.21;73.87;99866.97;1350348;90;21400;-88
2022/05/24 01:12:40;;;;;;;4.77;3.67;;;;;;;9.13;74.52;99864.25;1361386;90;21386;-87
2022/05/24 01:15:07;;;;;;;;;;;;;;;9.09;74.62;99857.14;1363088;90;21371;-88
2022/05/24 01:17:36;;;;;;;4.50;3.70;;;;;;;9.03;76.18;99857.25;1353753;91;20382;-88
2022/05/24 01:20:04;;;;;;;6.77;3.97;;;;;;;9.04;74.21;99853.62;1364646;89;21482;-87
2022/05/24 01:22:59;;;;;;;4.60;3.50;;;;;;;9.02;74.52;99848.97;1345447;90;22451;-89
2022/05/24 01:25:56;;;;;;;5.47;3.93;;;;;;;9.05;74.62;99850.48;1363968;89;21467;-88
2022/05/24 01:28:33;;;;;;;5.67;3.33;;;;;;;9.11;75.13;99853.01;1364063;89;22383;-88
2022/05/24 01:31:04;;;;;;;5.03;3.17;;;;;;;9.14;75.77;99852.20;1377209;88;21545;-88
2022/05/24 01:36:16;;;;;;;5.20;4.27;;;;;;;9.13;75.58;99844.45;1358575;90;21442;-88
2022/05/24 01:38:52;;;;;;;5.40;4.10;;;;;;;9.07;75.99;99851.17;1358550;90;21397;-88
2022/05/24 01:41:23;;;;;;;7.40;3.83;;;;;;;9.01;76.27;99844.69;1358834;89;21561;-88
2022/05/24 01:43:53;;;;;;;7.10;4.50;;;;;;;8.98;76.21;99837.07;1337178;91;22530;-89
2022/05/24 01:46:24;;;;;;;4.40;3.85;;;;;;;8.95;75.78;99838.70;1355311;91;22205;-89
2022/05/24 01:48:55;;;;;;;6.57;3.57;;;;;;;8.92;76.33;99837.68;1357124;91;21413;-87
2022/05/24 01:51:27;;;;;;;6.47;4.10;;;;;;;8.92;76.42;99828.45;1356936;91;21383;-88
2022/05/24 01:53:58;;;;;;;4.17;3.00;;;;;;;8.95;76.45;99832.09;1349511;91;22388;-87
2022/05/24 01:56:51;;;;;;;5.33;4.17;;;;;;;8.92;75.99;99826.27;1362113;89;21510;-87
2022/05/24 01:59:19;;;;;;;4.50;4.03;;;;;;;8.88;75.85;99825.75;1346441;92;21481;-87
2022/05/24 02:01:55;;;;;;;6.57;3.97;;;;;;;8.83;76.71;99825.37;1346056;92;21413;-87
2022/05/24 02:04:23;;;;;;;4.40;3.70;;;;;;;8.78;77.04;99823.20;1366323;90;21409;-89
2022/05/24 02:07:06;;;;;;;11.43;6.07;;;;;;;8.73;77.42;99815.39;1346824;92;21354;-89
2022/05/24 02:09:36;;;;;;;16.53;5.97;;;;;;;8.68;77.55;99821.11;1366817;89;21576;-88
2022/05/24 02:12:08;;;;;;;6.97;4.97;;;;;;;8.64;78.19;99825.54;1366477;90;22441;-89
2022/05/24 02:14:38;;;;;;;5.83;4.13;;;;;;;8.62;77.70;99818.25;1371294;90;21324;-88
2022/05/24 02:17:12;;;;;;;7.22;3.90;;;;;;;8.63;77.25;99820.76;1384785;89;21556;-87
2022/05/24 02:19:44;;;;;;;6.17;3.57;;;;;;;8.63;77.80;99811.98;1381158;90;21443;-89
2022/05/24 02:22:21;;;;;;;4.47;3.47;;;;;;;8.60;78.39;99819.70;1384701;89;21522;-88
2022/05/24 02:25:25;;;;;;;4.83;3.50;;;;;;;8.55;78.89;99820.17;1366345;90;22373;-86
2022/05/24 02:27:51;;;;;;;7.90;3.77;;;;;;;8.50;78.56;99815.83;1358683;92;21392;-85
2022/05/24 02:30:24;;;;;;;7.80;5.10;;;;;;;8.44;78.70;99829.61;1384873;89;21483;-84
2022/05/24 02:32:51;;;;;;;7.23;4.20;;;;;;;8.40;79.00;99826.95;1370233;89;22299;-85
2022/05/24 02:35:18;;;;;;;7.17;4.53;;;;;;;8.37;79.40;99835.09;1366853;90;21523;-85
2022/05/24 02:37:44;;;;;;;5.40;4.43;;;;;;;8.38;78.32;99833.31;1356800;92;21486;-85
2022/05/24 02:42:57;;;;;;;9.33;5.10;;;;;;;8.37;79.68;99833.77;1380998;89;21456;-85
2022/05/24 02:45:23;;;;;;;8.83;4.67;;;;;;;8.36;80.37;99838.72;1373924;89;21502;-85
2022/05/24 02:47:50;;;;;;;10.30;5.87;;;;;;;8.40;79.55;99838.81;1376058;89;21427;-85
2022/05/24 02:50:17;;;;;;;6.97;3.60;;;;;;;8.44;79.24;99831.42;1376223;89;21457;-85
2022/05/24 02:52:43;;;;;;;4.43;3.93;;;;;;;8.40;78.76;99826.95;1369854;89;21532;-85
2022/05/24 02:55:12;;;;;;;5.50;4.23;;;;;;;8.34;78.40;99833.61;1356192;91;21664;-85
2022/05/24 02:57:39;;;;;;;4.87;4.30;;;;;;;8.25;78.97;99834.47;1319776;94;22367;-85
2022/05/24 03:00:13;;;;;;;5.43;4.20;;;;;;;8.19;79.35;99833.73;1379997;89;21523;-85
2022/05/24 03:02:40;;;;;;;8.63;4.47;;;;;;;8.19;80.00;99831.59;1339212;92;21522;-85
2022/05/24 03:05:10;;;;;;;4.73;3.87;;;;;;;8.19;80.27;99839.02;1365848;90;21498;-85
2022/05/24 03:10:25;;;;;;;5.27;4.00;;;;;;;8.28;80.09;99837.30;1365758;89;22381;-85
2022/05/24 03:15:39;;;;;;;7.37;5.33;;;;;;;8.40;79.99;99842.77;1372059;90;21370;-85
2022/05/24 03:18:07;;;;;;;8.60;4.57;;;;;;;8.46;80.15;99847.45;1366781;89;21590;-85
2022/05/24 03:20:33;;;;;;;8.37;4.87;;;;;;;8.53;80.09;99853.77;1364635;89;21428;-86
2022/05/24 03:23:00;;;;;;;12.13;5.00;;;;;;;8.57;80.41;99859.11;1365886;90;22310;-85
2022/05/24 03:25:26;;;;;;;5.60;3.83;;;;;;;8.61;79.97;99856.17;1365669;90;21316;-85
2022/05/24 03:27:52;;;;;;;12.03;4.33;;;;;;;8.66;80.01;99859.17;1346475;90;21464;-84
2022/05/24 03:30:18;;;;;;;16.60;4.70;;;;;;;8.75;79.64;99871.00;1340859;92;21404;-86
2022/05/24 03:32:44;;;;;;;7.60;4.60;;;;;;;8.84;79.46;99873.23;1347114;91;21675;-86
2022/05/24 03:35:14;;;;;;;11.53;4.57;;;;;;;8.92;78.76;99869.35;1340467;92;22514;-89
2022/05/24 03:37:41;;;;;;;6.93;4.60;;;;;;;9.00;78.58;99877.32;1329469;93;22337;-87
2022/05/24 03:40:10;;;;;;;6.43;4.87;;;;;;;9.06;78.12;99881.17;1321867;94;21450;-87
2022/05/24 03:42:37;;;;;;;11.20;5.27;;;;;;;9.12;78.06;99887.66;1355766;90;22307;-85
2022/05/24 03:45:07;;;;;;;7.87;5.00;;;;;;;9.20;77.64;99893.02;1347656;91;21533;-86
2022/05/24 03:47:34;;;;;;;10.77;4.03;;;;;;;9.23;78.35;99892.21;1346752;92;21711;-86
2022/05/24 03:50:01;;;;;;;7.90;4.87;;;;;;;9.28;77.53;99893.09;1346268;92;21634;-84
2022/05/24 03:52:27;;;;;;;6.63;3.77;;;;;;;9.38;77.56;99900.91;1338280;92;21385;-85
2022/05/24 03:54:53;;;;;;;6.27;4.17;;;;;;;9.46;77.27;99897.84;1364932;89;21526;-84
2022/05/24 04:00:05;;;;;;;4.90;3.93;;;;;;;9.58;77.51;99906.38;1351039;91;21422;-86
2022/05/24 04:02:31;;;;;;;5.47;4.33;;;;;;;9.68;76.80;99912.88;1369450;89;21385;-83
2022/05/24 04:04:57;;;;;;;7.90;3.93;;;;;;;9.73;77.43;99912.44;1364696;89;21399;-85
2022/05/24 04:07:23;;;;;;;8.00;4.30;;;;;;;9.73;77.39;99913.26;1358662;91;22448;-84
2022/05/24 04:09:49;;;;;;;7.80;3.97;;;;;;;9.73;76.54;99912.44;1377246;89;21549;-84
2022/05/24 04:12:15;;;;;;;5.73;3.40;;;;;;;9.79;76.74;99915.28;1376966;89;21405;-84
2022/05/24 04:14:41;;;;;;;6.23;4.33;;;;;;;9.88;77.14;99901.13;1348326;91;21391;-83
2022/05/24 04:17:08;;;;;;;5.60;3.67;;;;;;;9.99;77.20;99904.50;1351811;91;22336;-83
2022/05/24 04:19:34;;;;;;;13.30;4.20;;;;;;;10.06;76.66;99909.48;1358915;91;21427;-83
2022/05/24 04:22:00;;;;;;;7.80;4.13;;;;;;;10.14;76.26;99916.97;1358990;91;22284;-83
2022/05/24 04:24:26;;;;;;;11.00;4.93;;;;;;;10.25;76.63;99916.38;1367305;89;21472;-84
2022/05/24 04:26:52;;;;;;;6.80;4.17;;;;;;;10.33;76.17;99921.73;1368008;89;22734;-83
2022/05/24 04:29:18;;;;;;;6.27;4.40;;;;;;;10.39;75.52;99918.45;1376822;89;21479;-83
2022/05/24 04:31:45;;;;;;;9.83;4.43;;;;;;;10.38;74.98;99914.95;1364541;89;21457;-84
2022/05/24 04:34:11;;;;;;;12.23;4.20;;;;;;;10.40;74.74;99916.13;1358435;90;22668;-84
2022/05/24 04:36:37;;;;;;;5.30;4.03;;;;;;;10.47;75.15;99921.61;1341087;91;21442;-84
2022/05/24 04:39:03;;;;;;;7.67;4.20;;;;;;;10.60;74.88;99928.62;1340647;92;22456;-85
2022/05/24 04:44:14;;;;;;;7.40;4.97;;;;;;;10.77;74.15;99934.30;1354193;90;21363;-85
2022/05/24 04:49:25;;;;;;;10.47;5.27;;;;;;;11.09;73.33;99926.60;1336872;92;22236;-85
2022/05/24 04:51:58;;;;;;;8.20;4.93;;;;;;;11.17;73.29;99927.94;1357176;90;21563;-85
2022/05/24 04:54:25;;;;;;;10.97;5.57;;;;;;;11.29;72.83;99922.14;1356708;91;21334;-85
2022/05/24 04:56:51;;;;;;;11.13;5.17;;;;;;;11.39;72.59;99918.50;1366445;90;22208;-85
2022/05/24 04:59:17;;;;;;;12.47;5.07;;;;;;;11.48;71.90;99921.52;1339951;92;21460;-83
2022/05/24 05:01:44;;;;;;;7.43;4.57;;;;;;;11.61;72.01;99923.65;1350822;91;21417;-85
2022/05/24 05:04:11;;;;;;;8.17;4.53;;;;;;;11.72;71.88;99926.78;1360920;91;21385;-86
2022/05/24 05:06:43;;;;;;;8.40;4.30;;;;;;;11.83;71.35;99923.47;1354061;90;22274;-86
2022/05/24 05:09:11;;;;;;;9.40;4.90;;;;;;;11.92;70.67;99924.64;1343351;92;21563;-85
2022/05/24 05:11:38;;;;;;;9.50;6.00;;;;;;;12.09;70.57;99929.92;1326314;93;21514;-87
2022/05/24 05:14:05;;;;;;;22.43;6.73;;;;;;;12.26;70.18;99928.05;1326629;92;21513;-86
2022/05/24 05:16:31;;;;;;;11.20;6.27;;;;;;;12.45;70.21;99928.14;1327607;93;21521;-85
2022/05/24 05:18:57;;;;;;;11.40;6.73;;;;;;;12.65;69.77;99923.56;1326596;93;22415;-85
2022/05/24 05:21:25;;;;;;;14.73;9.67;;;;;;;12.84;69.13;99922.31;1326742;93;21417;-82
2022/05/24 05:23:52;;;;;;;15.40;9.13;;;;;;;13.04;68.82;99922.70;1309000;95;21670;-82
2022/05/24 05:26:18;;;;;;;14.83;8.07;;;;;;;13.17;66.53;99913.31;1343347;92;21437;-84
2022/05/24 05:28:44;;;;;;;9.03;5.00;;;;;;;13.35;67.30;99913.89;1348484;92;21393;-84
2022/05/24 05:31:26;;;;;;;15.97;5.93;;;;;;;13.46;65.79;99906.79;1347889;92;22251;-83
2022/05/24 05:34:01;;;;;;;14.17;5.20;;;;;;;13.65;66.12;99900.66;1343208;92;22330;-84
2022/05/24 05:36:30;;;;;;;8.27;4.80;;;;;;;13.93;66.00;99900.90;1347804;92;21423;-85
2022/05/24 05:38:57;;;;;;;5.37;3.60;;;;;;;14.25;65.09;99898.38;1310609;94;21526;-86
2022/05/24 05:41:30;;;;;;;5.97;3.93;;;;;;;14.55;65.19;99897.05;1329359;93;21585;-84
2022/05/24 05:43:58;;;;;;;16.47;6.53;;;;;;;14.83;62.28;99906.49;1347326;91;21429;-84
2022/05/24 05:46:25;;;;;;;15.67;5.13;;;;;;;15.03;62.68;99909.37;1360125;90;22309;-85
2022/05/24 05:48:51;;;;;;;12.67;3.70;;;;;;;15.10;62.40;99904.44;1359909;91;21496;-85
2022/05/24 05:51:19;;;;;;;9.83;3.53;;;;;;;15.20;61.91;99905.45;1346663;92;21385;-85
2022/05/24 05:53:45;;;;;;;4.37;3.23;;;;;;;15.28;61.30;99906.66;1360507;91;21571;-86
2022/05/24 05:56:19;;;;;;;8.33;3.60;;;;;;;15.23;60.07;99912.24;1360017;91;21533;-85
2022/05/24 05:58:46;;;;;;;5.17;3.23;;;;;;;15.30;61.22;99911.27;1346313;92;22295;-85
2022/05/24 06:01:18;;;;;;;11.20;3.33;;;;;;;15.43;61.15;99913.77;1360622;90;21400;-85
2022/05/24 06:03:44;;;;;;;9.23;3.40;;;;;;;15.54;61.11;99910.58;1360374;91;22464;-85
2022/05/24 06:06:18;;;;;;;5.53;3.53;;;;;;;15.64;61.12;99916.39;1359877;91;21528;-86
2022/05/24 06:08:44;;;;;;;4.97;3.20;;;;;;;15.76;60.68;99915.39;1360267;91;21393;-83
2022/05/24 06:11:10;;;;;;;4.90;3.10;;;;;;;15.87;59.92;99908.70;1360379;91;22280;-85
2022/05/24 06:13:36;;;;;;;9.63;3.67;;;;;;;15.92;58.52;99923.63;1345837;92;21378;-85
2022/05/24 06:16:02;;;;;;;8.30;3.30;;;;;;;16.05;59.29;99927.70;1360508;91;22446;-85
2022/05/24 06:18:30;;;;;;;17.93;4.90;;;;;;;16.11;58.75;99933.62;1360334;91;21452;-85
2022/05/24 06:20:56;;;;;;;7.17;3.20;;;;;;;16.16;58.54;99937.83;1346206;92;21527;-85
2022/05/24 06:23:22;;;;;;;17.47;3.30;;;;;;;16.18;57.98;99931.80;1360820;91;22369;-86
2022/05/24 06:25:48;;;;;;;8.27;3.40;;;;;;;16.27;58.26;99936.47;1360335;91;21393;-86
2022/05/24 06:28:15;;;;;;;11.00;3.53;;;;;;;16.40;58.52;99939.71;1331149;93;22368;-86
2022/05/24 06:30:42;;;;;;;9.17;2.87;;;;;;;16.53;58.55;99939.79;1360496;90;22840;-85
2022/05/24 06:33:08;;;;;;;7.33;3.33;;;;;;;16.52;56.45;99939.48;1360456;91;21489;-84
2022/05/24 06:35:38;;;;;;;12.03;3.13;;;;;;;16.55;55.61;99935.59;1345761;92;22347;-88
2022/05/24 06:38:05;;;;;;;8.40;4.42;;;;;;;16.64;56.93;99941.90;1360500;91;21460;-89
2022/05/24 06:40:32;;;;;;;10.40;4.60;;;;;;;16.77;56.99;99941.14;1360755;91;21488;-88
2022/05/24 06:42:58;;;;;;;10.13;5.03;;;;;;;16.67;54.28;99940.68;1360972;91;21459;-89
2022/05/24 06:45:24;;;;;;;8.13;4.40;;;;;;;16.77;55.74;99938.47;1362718;90;21459;-89
2022/05/24 06:47:51;;;;;;;8.90;3.60;;;;;;;16.82;55.82;99940.56;1358811;89;22371;-89
2022/05/24 06:50:18;;;;;;;5.43;3.40;;;;;;;16.90;55.75;99941.72;1364942;90;21429;-88
2022/05/24 06:52:45;;;;;;;11.80;3.60;;;;;;;17.00;55.89;99943.48;1385841;89;21585;-88
2022/05/24 06:55:11;;;;;;;11.53;2.87;;;;;;;17.03;54.92;99947.61;1385848;89;22570;-88
2022/05/24 06:57:38;;;;;;;5.60;3.73;;;;;;;17.08;52.61;99943.31;1386516;89;21585;-89
2022/05/24 07:03:03;;;;;;;23.23;4.63;;;;;;;17.30;53.42;99937.81;1348459;92;21355;-89
2022/05/24 07:05:29;;;;;;;14.90;4.60;;;;;;;17.52;52.82;99930.41;1346456;92;21434;-88
2022/05/24 07:07:58;;;;;;;13.20;3.00;;;;;;;17.76;53.08;99924.98;1384938;89;21408;-89
2022/05/24 07:10:25;;;;;;;9.73;2.87;;;;;;;17.96;51.43;99927.16;1369111;90;21438;-88
2022/05/24 07:13:04;;;;;;;3.73;2.37;;;;;;;18.16;52.15;99920.95;1386111;89;21408;-89
2022/05/24 07:15:30;;;;;;;9.83;3.13;;;;;;;18.33;50.64;99920.80;1385996;89;21498;-88
2022/05/24 07:17:57;;;;;;;8.70;4.03;;;;;;;18.58;51.54;99906.69;1386265;89;21542;-90
2022/05/24 07:20:25;;;;;;;8.87;4.30;;;;;;;18.61;50.15;99904.39;1365134;90;21480;-89
2022/05/24 07:22:54;;;;;;;9.60;4.05;;;;;;;18.80;50.62;99905.38;1386424;89;21483;-89
2022/05/24 07:25:21;;;;;;;9.58;2.92;;;;;;;18.89;50.40;99908.64;1386453;89;22267;-87
2022/05/24 07:27:48;;;;;;;5.10;2.98;;;;;;;19.02;50.22;99906.39;1368970;90;21542;-88
2022/05/24 07:30:15;;;;;;;5.58;3.10;;;;;;;19.20;50.17;99911.05;1386154;89;21431;-88
2022/05/24 07:32:42;;;;;;;18.82;3.75;;;;;;;19.27;48.11;99899.73;1386315;89;22298;-88
2022/05/24 07:35:10;;;;;;;7.37;2.62;;;;;;;19.46;48.33;99900.11;1386968;89;22318;-88
2022/05/24 07:37:36;;;;;;;6.42;2.20;;;;;;;19.75;47.90;99900.52;1364825;90;21488;-88
2022/05/24 07:45:49;;;;;;;4.25;2.58;;;;;;;20.68;46.46;99898.19;1365925;90;21486;-88
2022/05/24 07:48:19;;;;;;;7.78;2.33;;;;;;;20.88;45.89;99901.95;1375862;89;21464;-89
2022/05/24 07:50:46;;;;;;;3.77;2.05;;;;;;;20.94;44.45;99898.35;1358691;91;22440;-89
2022/05/24 07:53:14;;;;;;;4.05;2.47;;;;;;;20.94;42.93;99898.35;1375343;89;21619;-89
2022/05/24 07:55:40;;;;;;;6.47;2.30;;;;;;;21.08;43.94;99900.33;1376445;89;22905;-89
2022/05/24 07:58:07;;;;;;;4.67;2.52;;;;;;;21.16;43.36;99900.02;1375671;89;21427;-89
2022/05/24 08:00:35;;;;;;;4.42;2.15;;;;;;;21.11;43.41;99906.06;1376096;89;21449;-79
2022/05/24 08:03:01;;;;;;;4.65;2.35;;;;;;;20.99;42.35;99899.84;1375426;89;21449;-77
2022/05/24 08:05:30;;;;;;;7.25;2.80;;;;;;;21.08;43.16;99902.49;1375338;89;21361;-77
2022/05/24 08:07:57;;;;;;;7.15;2.70;;;;;;;21.07;40.93;99904.90;1375209;89;22424;-78
2022/05/24 08:10:24;;;;;;;9.58;2.67;;;;;;;20.71;42.23;99905.30;1375738;89;21427;-77
2022/05/24 08:12:50;;;;;;;2.98;1.82;;;;;;;20.71;43.21;99907.98;1375286;89;21487;-77
2022/05/24 08:15:16;;;;;;;3.17;2.27;;;;;;;20.64;41.63;99907.77;1375354;89;22367;-77
2022/05/24 08:17:42;;;;;;;6.40;2.27;;;;;;;20.64;41.86;99906.42;1357540;90;21376;-77
2022/05/24 08:20:10;;;;;;;4.35;2.42;;;;;;;20.74;42.85;99914.75;1315485;94;22527;-77
2022/05/24 08:22:39;;;;;;;4.78;2.62;;;;;;;20.85;42.89;99910.48;1346654;92;21481;-77
2022/05/24 08:25:07;;;;;;;5.83;2.12;;;;;;;21.02;42.65;99909.33;1346983;92;21495;-78
2022/05/24 08:27:34;;;;;;;4.10;2.37;;;;;;;21.21;41.97;99903.38;1375550;89;22241;-78
2022/05/24 08:30:01;;;;;;;4.12;2.10;;;;;;;21.35;41.89;99913.70;1375120;89;21501;-78
2022/05/24 08:32:27;;;;;;;4.33;2.10;;;;;;;21.57;41.08;99915.86;1375768;89;21427;-78
2022/05/24 08:34:53;;;;;;;3.27;1.92;;;;;;;21.70;40.74;99910.27;1375170;89;21420;-78
2022/05/24 08:37:20;;;;;;;9.80;1.90;;;;;;;21.52;37.54;99909.84;1375253;89;22219;-78
2022/05/24 08:39:46;;;;;;;2.60;1.87;;;;;;;21.66;40.31;99909.08;1375479;89;21523;-77
2022/05/24 08:42:29;;;;;;;6.65;1.70;;;;;;;21.66;40.31;99909.08;1375415;89;21420;-77
2022/05/24 08:50:37;;;;;;;4.35;2.02;;;;;;;22.19;39.50;99900.09;1335291;92;21429;-77
2022/05/24 08:53:10;;;;;;;7.22;2.90;;;;;;;22.42;38.93;99894.36;1335360;92;21443;-77
2022/05/24 08:55:39;;;;;;;2.85;2.05;;;;;;;22.56;37.73;99889.50;1334949;92;21420;-78
2022/05/24 08:58:13;;;;;;;2.12;1.70;;;;;;;22.70;38.03;99890.34;1335061;93;22936;-77
2022/05/24 09:00:42;;;;;;;15.05;2.60;;;;;;;22.85;37.89;99884.42;1335071;93;21376;-77
2022/05/24 09:03:10;;;;;;;3.90;1.95;;;;;;;22.96;37.17;99879.53;1335585;92;21458;-78
2022/05/24 09:05:41;;;;;;;4.10;2.08;;;;;;;23.03;37.37;99881.26;1335782;92;21413;-78
2022/05/24 09:08:24;;;;;;;2.42;2.22;;;;;;;23.05;37.77;99883.19;1334981;94;22509;-78
2022/05/24 09:11:19;;;;;;;3.80;2.17;;;;;;;22.94;36.53;99883.50;1335175;93;21479;-78
2022/05/24 09:14:32;;;;;;;6.90;2.45;;;;;;;22.89;37.63;99880.16;1335290;93;21399;-78
2022/05/24 09:17:28;;;;;;;2.52;1.85;;;;;;;22.80;37.57;99873.52;1334723;92;21378;-78
2022/05/24 09:19:54;;;;;;;7.95;1.77;;;;;;;22.91;37.72;99879.40;1334389;93;22331;-77
2022/05/24 09:22:22;;;;;;;5.17;2.45;;;;;;;22.85;37.58;99873.63;1335132;92;21502;-77
2022/05/24 09:24:56;;;;;;;4.15;2.25;;;;;;;22.89;37.85;99878.81;1335162;93;21624;-78
2022/05/24 09:27:28;;;;;;;17.12;2.10;;;;;;;22.82;36.77;99874.11;1334902;93;21517;-77
2022/05/24 09:30:11;;;;;;;9.25;2.42;;;;;;;22.82;36.81;99876.00;1335349;92;21414;-77
2022/05/24 09:32:44;;;;;;;8.20;2.65;;;;;;;22.95;37.31;99879.22;1313900;95;21577;-77
2022/05/24 09:35:21;;;;;;;3.62;1.57;;;;;;;22.88;37.26;99875.84;1335419;92;21612;-77
2022/05/24 09:38:08;;;;;;;4.45;2.40;;;;;;;22.75;37.21;99885.56;1334887;94;22405;-77
2022/05/24 09:40:58;;;;;;;7.15;2.15;;;;;;;22.70;36.45;99878.72;1334882;93;22344;-77
2022/05/24 09:43:29;;;;;;;3.95;2.87;;;;;;;22.80;37.84;99893.76;1334391;93;21436;-78
2022/05/24 09:46:04;;;;;;;6.12;2.22;;;;;;;22.97;37.79;99898.70;1320119;93;21435;-78
2022/05/24 09:48:35;;;;;;;9.75;2.45;;;;;;;23.26;37.55;99890.56;1340298;92;21656;-77
2022/05/24 09:51:03;;;;;;;2.50;2.30;;;;;;;23.46;35.98;99896.02;1339906;92;21576;-77
2022/05/24 09:53:32;;;;;;;3.20;2.37;;;;;;;23.59;34.27;99892.98;1339923;92;21636;-78
2022/05/24 09:56:03;;;;;;;5.03;2.12;;;;;;;23.46;35.39;99892.79;1340147;92;21524;-77
2022/05/24 09:58:39;;;;;;;5.92;2.27;;;;;;;23.73;35.72;99886.20;1337712;93;21572;-77
2022/05/24 10:01:14;;;;;;;8.10;2.58;;;;;;;24.05;36.40;99886.92;1340340;92;21495;-78
2022/05/24 10:03:48;;;;;;;5.22;2.00;;;;;;;24.36;35.81;99890.04;1340044;92;22456;-77
2022/05/24 10:06:28;;;;;;;6.58;2.30;;;;;;;24.50;35.08;99895.38;1339719;92;22464;-77
2022/05/24 10:09:02;;;;;;;5.55;2.52;;;;;;;24.49;34.82;99896.47;1339950;92;21428;-77
2022/05/24 10:11:55;;;;;;;4.00;1.95;;;;;;;24.71;34.60;99895.08;1336749;92;21590;-77
2022/05/24 10:14:39;;;;;;;4.30;2.05;;;;;;;24.82;33.50;99889.25;1340022;92;22453;-78
2022/05/24 10:17:40;;;;;;;6.05;2.27;;;;;;;24.67;33.00;99890.72;1339833;92;22441;-77
2022/05/24 10:20:29;;;;;;;3.65;2.27;;;;;;;24.72;34.46;99884.02;1283345;92;21599;-78
2022/05/24 10:23:16;;;;;;;8.83;2.90;;;;;;;24.85;34.02;99892.80;1339668;93;21435;-77
2022/05/24 10:25:50;;;;;;;10.15;2.10;;;;;;;24.98;33.78;99891.05;1339198;92;21509;-76
2022/05/24 10:28:46;;;;;;;9.78;2.30;;;;;;;25.10;33.79;99887.64;1339802;92;21628;-76
2022/05/24 10:31:55;;;;;;;9.23;2.72;;;;;;;25.15;32.64;99882.31;1339753;92;21510;-76
2022/05/24 10:40:45;;;;;;;8.55;1.52;;;;;;;25.09;32.14;99880.60;1339804;92;22353;-76
2022/05/24 10:43:23;;;;;;;6.75;2.08;;;;;;;25.09;32.58;99877.89;1339954;92;22853;-76
2022/05/24 10:45:55;;;;;;;3.30;2.15;;;;;;;25.19;32.60;99879.89;1339962;92;21562;-76
2022/05/24 10:48:55;;;;;;;17.45;2.45;;;;;;;25.26;32.03;99876.97;1338362;92;22287;-76
2022/05/24 10:51:32;;;;;;;4.42;2.00;;;;;;;25.33;32.20;99881.64;1338796;92;21576;-76
2022/05/24 10:54:07;;;;;;;8.00;1.77;;;;;;;25.23;30.23;99872.06;1338479;92;21697;-76
2022/05/24 10:56:53;;;;;;;4.33;1.80;;;;;;;25.14;31.84;99883.36;1337742;91;22633;-76
2022/05/24 10:59:37;;;;;;;5.58;1.70;;;;;;;24.15;31.31;99882.21;1338485;92;21429;-78
2022/05/24 11:02:11;;;;;;;6.62;2.15;;;;;;;24.76;32.99;99875.66;1338434;92;21605;-76
2022/05/24 11:04:52;;;;;;;4.95;1.92;;;;;;;25.10;32.64;99879.52;1338402;92;21450;-76
2022/05/24 11:07:20;;;;;;;24.63;3.12;;;;;;;25.48;33.58;99877.70;1308459;92;22471;-76
2022/05/24 11:09:59;;;;;;;4.42;1.82;;;;;;;25.84;31.93;99882.87;1321129;94;21288;-76
2022/05/24 11:12:30;;;;;;;6.42;2.47;;;;;;;25.98;31.37;99879.67;1338460;92;22440;-75
2022/05/24 11:15:07;;;;;;;3.72;1.60;;;;;;;25.98;30.88;99872.37;1338677;92;22353;-76
2022/05/24 11:17:33;;;;;;;11.60;2.67;;;;;;;26.15;30.71;99872.72;1338422;92;21333;-76
2022/05/24 11:20:03;;;;;;;9.40;2.72;;;;;;;26.18;30.12;99868.95;1338670;92;21391;-76
2022/05/24 11:22:42;;;;;;;7.80;2.30;;;;;;;26.18;30.17;99874.38;1338305;92;21580;-76
2022/05/24 11:25:33;;;;;;;11.48;1.98;;;;;;;26.24;30.18;99874.67;1324084;92;21534;-78
2022/05/24 11:28:05;;;;;;;8.25;2.52;;;;;;;26.34;30.48;99874.70;1337636;92;21465;-76
2022/05/24 11:30:39;;;;;;;6.80;1.95;;;;;;;26.50;29.64;99879.69;1338413;92;21542;-76
2022/05/24 11:33:16;;;;;;;4.97;1.80;;;;;;;26.63;29.92;99872.13;1338444;92;22785;-76
2022/05/24 11:35:46;;;;;;;4.08;2.40;;;;;;;26.78;30.24;99870.24;1338651;92;21502;-76
2022/05/24 11:38:17;;;;;;;4.87;1.32;;;;;;;26.85;29.01;99867.84;1338315;92;21525;-77
2022/05/24 11:41:07;;;;;;;7.37;1.82;;;;;;;26.66;28.17;99867.52;1338334;92;21429;-77
2022/05/24 11:43:46;;;;;;;5.40;1.65;;;;;;;26.43;29.48;99866.86;1338247;92;21510;-76
2022/05/24 11:46:37;;;;;;;7.37;1.75;;;;;;;26.52;30.19;99868.01;1337797;92;21465;-76
2022/05/24 11:49:24;;;;;;;4.22;1.60;;;;;;;26.63;30.25;99870.22;1333840;93;21534;-77
2022/05/24 11:51:54;;;;;;;2.25;1.70;;;;;;;26.48;28.20;99866.89;1333525;93;21466;-76
2022/05/24 11:54:26;;;;;;;5.65;1.90;;;;;;;26.37;30.06;99859.80;1333742;93;21399;-77
2022/05/24 11:57:02;;;;;;;5.78;1.70;;;;;;;26.41;30.52;99862.23;1333807;92;21583;-76
2022/05/24 11:59:46;;;;;;;5.78;1.72;;;;;;;26.52;30.66;99855.80;1333815;93;22677;-76
2022/05/24 12:07:54;;;;;;;6.08;1.40;;;;;;;26.63;30.57;99852.58;1333669;94;21399;-75
2022/05/24 12:08:02;;;;;;;12.20;2.10;;;;;;;26.80;30.44;99848.27;1333945;93;21407;-76
2022/05/24 12:10:55;;;;;;;4.53;2.10;;;;;;;27.07;30.13;99840.42;1323335;93;22522;-75
2022/05/24 12:13:38;;;;;;;5.47;1.50;;;;;;;27.32;29.48;99834.21;1333814;93;22853;-76
2022/05/24 12:16:11;;;;;;;22.05;4.33;;;;;;;27.32;28.83;99835.02;1333557;93;21458;-76
2022/05/24 12:18:59;;;;;;;3.10;1.55;;;;;;;27.56;28.57;99833.89;1314747;93;21407;-76
2022/05/24 12:21:57;;;;;;;2.72;1.45;;;;;;;27.70;27.53;99840.13;1333792;93;21540;-75
2022/05/24 12:24:38;;;;;;;3.95;1.85;;;;;;;27.59;27.55;99835.25;1333652;93;21341;-76
2022/05/24 12:27:24;;;;;;;5.00;1.80;;;;;;;27.34;27.52;99835.57;1333724;93;21495;-76
2022/05/24 12:30:21;;;;;;;5.62;1.62;;;;;;;27.29;28.21;99830.69;1333694;92;21427;-77
2022/05/24 12:32:48;;;;;;;10.18;1.60;;;;;;;27.47;28.07;99836.09;1333588;94;22312;-78
2022/05/24 12:35:17;;;;;;;3.42;1.50;;;;;;;27.43;27.81;99835.28;1334128;93;21640;-80
2022/05/24 12:37:56;;;;;;;3.22;1.92;;;;;;;27.42;28.06;99828.23;1334929;92;21536;-79
2022/05/24 12:40:30;;;;;;;3.52;1.50;;;;;;;27.69;27.66;99828.45;1335073;93;21465;-82